Time;durP1;ratioP1;P1;durP2;ratioP2;P2;SDS_P1;SDS_P2;PMS_P1;PMS_P2;Temp;Humidity;BMP_temperature;BMP_pressure;BME280_temperature;BME280_humidity;BME280_pressure;Samples;Min_cycle;Max_cycle;Signal;HPM_P1;HPM_P2
2021/10/22 00:00:46;;;;;;;5.38;1.90;;;;;;;9.97;97.07;97744.91;4988052;28;20046;-63
2021/10/22 00:03:12;;;;;;;4.85;2.05;;;;;;;9.95;97.95;97755.41;4987535;28;20041;-63
2021/10/22 00:05:38;;;;;;;3.75;2.00;;;;;;;9.70;97.39;97757.34;4988993;28;20095;-65
2021/10/22 00:08:03;;;;;;;3.85;2.15;;;;;;;10.11;94.62;97763.44;4986640;28;20507;-63
2021/10/22 00:10:29;;;;;;;4.35;2.17;;;;;;;9.79;98.43;97757.78;4988510;28;20042;-63
2021/10/22 00:12:54;;;;;;;4.75;2.03;;;;;;;10.22;98.02;97758.59;4987686;28;20412;-63
2021/10/22 00:15:20;;;;;;;4.65;2.33;;;;;;;9.89;97.44;97767.81;4987177;28;20110;-65
2021/10/22 00:17:46;;;;;;;6.38;2.20;;;;;;;9.89;100.00;97760.00;4987890;28;20030;-63
2021/10/22 00:20:11;;;;;;;5.40;2.40;;;;;;;9.70;99.90;97763.38;4987868;28;20121;-62
2021/10/22 00:22:38;;;;;;;5.68;2.40;;;;;;;9.95;99.73;97767.59;4988488;28;20022;-66
2021/10/22 00:25:05;;;;;;;5.53;2.28;;;;;;;9.98;98.31;97767.44;4989979;28;20480;-64
2021/10/22 00:27:30;;;;;;;4.97;2.47;;;;;;;9.99;98.51;97776.97;4988803;28;20612;-65
2021/10/22 00:29:58;;;;;;;5.05;2.45;;;;;;;9.89;100.00;97783.47;4986673;28;20679;-66
2021/10/22 00:32:23;;;;;;;7.50;2.47;;;;;;;9.99;99.65;97785.63;4987174;28;20038;-64
2021/10/22 00:34:49;;;;;;;4.70;2.25;;;;;;;9.73;99.69;97794.53;4989152;28;20037;-66
2021/10/22 00:37:14;;;;;;;6.10;2.28;;;;;;;10.38;97.30;97786.63;4989831;28;20061;-65
2021/10/22 00:39:40;;;;;;;6.82;2.88;;;;;;;9.72;99.55;97791.97;4988004;28;20029;-63
2021/10/22 00:42:07;;;;;;;4.50;2.50;;;;;;;9.65;97.50;97796.59;4985673;28;20215;-65
2021/10/22 00:44:33;;;;;;;4.88;2.50;;;;;;;9.77;100.00;97801.28;4988580;28;20026;-64
2021/10/22 00:46:58;;;;;;;4.15;2.30;;;;;;;9.58;98.16;97796.00;4986159;28;20121;-65
2021/10/22 00:49:24;;;;;;;4.53;2.38;;;;;;;9.39;96.98;97793.28;4988591;28;20032;-66
2021/10/22 00:51:50;;;;;;;6.50;2.60;;;;;;;9.35;100.00;97798.66;4987136;28;20038;-65
2021/10/22 00:54:16;;;;;;;9.32;2.80;;;;;;;9.62;97.89;97802.78;4988569;28;20023;-63
2021/10/22 00:56:41;;;;;;;7.28;2.88;;;;;;;9.45;100.00;97800.84;4988028;28;20038;-65
2021/10/22 00:59:07;;;;;;;8.05;2.80;;;;;;;9.14;96.41;97805.56;4988053;28;20026;-63
2021/10/22 01:01:39;;;;;;;4.45;2.63;;;;;;;9.22;97.47;97803.50;4987037;28;20039;-63
2021/10/22 01:04:06;;;;;;;4.97;2.78;;;;;;;9.35;96.35;97807.31;4992169;28;20141;-63
2021/10/22 01:06:34;;;;;;;5.68;2.70;;;;;;;8.84;98.39;97813.59;4990514;28;20069;-63
2021/10/22 01:09:00;;;;;;;5.60;2.80;;;;;;;9.21;96.27;97814.81;4991460;28;20026;-65
2021/10/22 01:11:25;;;;;;;4.45;2.13;;;;;;;9.65;98.91;97804.41;4990996;28;20684;-63
2021/10/22 01:13:51;;;;;;;7.00;3.47;;;;;;;8.97;99.42;97808.78;4990644;28;20034;-64
2021/10/22 01:16:17;;;;;;;9.80;2.95;;;;;;;9.24;96.49;97812.09;4992264;28;20092;-63
2021/10/22 01:18:42;;;;;;;5.95;2.50;;;;;;;8.90;98.37;97797.78;4993660;28;20025;-63
2021/10/22 01:21:07;;;;;;;5.70;2.83;;;;;;;8.96;96.93;97807.09;4991583;28;20038;-65
2021/10/22 01:23:35;;;;;;;5.63;2.40;;;;;;;9.13;96.80;97814.25;4993362;28;20033;-65
2021/10/22 01:26:01;;;;;;;5.18;2.20;;;;;;;9.38;98.19;97804.59;4991150;28;20037;-66
2021/10/22 01:28:27;;;;;;;9.20;2.95;;;;;;;8.70;97.21;97805.47;4993261;28;20100;-64
2021/10/22 01:30:53;;;;;;;5.25;2.10;;;;;;;9.10;94.57;97815.22;4990718;28;20057;-64
2021/10/22 01:33:19;;;;;;;5.35;2.53;;;;;;;8.92;95.04;97824.56;4992515;28;20404;-65
2021/10/22 01:35:49;;;;;;;6.03;2.83;;;;;;;8.80;92.24;97827.63;4989876;28;20053;-64
2021/10/22 01:38:17;;;;;;;6.80;2.30;;;;;;;8.89;92.99;97824.66;4993639;28;20452;-64
2021/10/22 01:40:43;;;;;;;4.63;2.00;;;;;;;9.09;93.08;97823.09;4991682;28;20124;-63
2021/10/22 01:43:09;;;;;;;7.28;2.58;;;;;;;8.72;94.37;97824.47;4994491;28;20774;-63
2021/10/22 01:45:36;;;;;;;8.48;2.67;;;;;;;8.49;91.07;97833.91;4994088;28;20050;-65
2021/10/22 01:48:01;;;;;;;3.65;1.90;;;;;;;8.87;92.43;97842.09;4992617;28;20104;-63
2021/10/22 01:50:27;;;;;;;4.78;2.47;;;;;;;8.92;93.13;97836.75;4992760;28;20030;-65
2021/10/22 01:52:52;;;;;;;9.40;2.70;;;;;;;8.76;92.71;97841.63;4994342;28;20057;-65
2021/10/22 01:55:17;;;;;;;7.75;2.33;;;;;;;8.62;94.30;97836.91;4992007;28;20057;-64
2021/10/22 01:57:43;;;;;;;7.13;2.72;;;;;;;8.23;92.79;97843.41;4991263;28;20140;-65
2021/10/22 02:00:09;;;;;;;4.97;2.40;;;;;;;8.34;96.45;97839.63;4989682;28;20060;-64
2021/10/22 02:02:34;;;;;;;3.97;1.98;;;;;;;8.56;92.47;97834.56;4991410;28;20113;-65
2021/10/22 02:05:00;;;;;;;6.85;2.45;;;;;;;8.46;93.72;97837.47;4994131;28;20121;-63
2021/10/22 02:07:25;;;;;;;8.18;3.28;;;;;;;8.38;91.70;97846.41;4991802;28;20034;-65
2021/10/22 02:09:50;;;;;;;7.43;2.47;;;;;;;8.46;94.20;97844.44;4991672;28;20030;-64
2021/10/22 02:12:16;;;;;;;6.72;2.67;;;;;;;8.52;92.39;97854.59;4992227;28;20073;-62
2021/10/22 02:14:41;;;;;;;9.25;3.50;;;;;;;8.41;90.86;97844.53;4992831;28;20099;-65
2021/10/22 02:17:07;;;;;;;13.48;3.38;;;;;;;8.19;91.66;97852.22;4993570;28;20069;-65
2021/10/22 02:19:32;;;;;;;9.88;3.15;;;;;;;8.30;92.51;97855.31;4991684;28;20026;-62
2021/10/22 02:21:59;;;;;;;5.57;2.65;;;;;;;8.63;92.62;97851.63;4989682;28;20100;-62
2021/10/22 02:24:24;;;;;;;8.65;2.83;;;;;;;8.79;90.51;97854.53;4991143;28;20030;-66
2021/10/22 02:26:50;;;;;;;6.72;3.13;;;;;;;8.26;94.33;97858.91;4989251;28;20067;-64
2021/10/22 02:29:15;;;;;;;10.52;3.22;;;;;;;8.55;93.04;97853.66;4990630;28;20373;-64
2021/10/22 02:31:41;;;;;;;9.38;3.00;;;;;;;8.41;92.30;97854.94;4987439;28;20118;-65
2021/10/22 02:34:06;;;;;;;4.28;1.98;;;;;;;9.07;95.96;97859.56;4990037;28;20138;-66
2021/10/22 02:36:31;;;;;;;4.85;2.13;;;;;;;9.01;94.67;97858.03;4989186;28;20042;-63
2021/10/22 02:38:57;;;;;;;7.63;3.13;;;;;;;8.62;94.56;97857.72;4991217;28;20136;-63
2021/10/22 02:41:22;;;;;;;8.48;3.10;;;;;;;8.48;95.55;97858.22;4989883;28;20050;-63
2021/10/22 02:43:48;;;;;;;9.68;3.38;;;;;;;8.33;95.31;97858.72;4991157;28;20026;-63
2021/10/22 02:46:14;;;;;;;9.45;3.20;;;;;;;8.09;96.24;97858.66;4990321;28;20141;-65
2021/10/22 02:48:39;;;;;;;7.85;3.40;;;;;;;8.25;97.63;97857.25;4988683;28;20022;-65
2021/10/22 02:51:05;;;;;;;5.32;2.97;;;;;;;8.34;98.71;97860.41;4989410;28;20752;-66
2021/10/22 02:53:30;;;;;;;5.82;2.80;;;;;;;8.88;96.69;97872.41;4991327;28;20141;-63
2021/10/22 02:55:55;;;;;;;10.73;3.50;;;;;;;8.43;95.46;97875.72;4988086;28;20133;-65
2021/10/22 02:58:21;;;;;;;6.85;3.10;;;;;;;8.13;97.95;97868.03;4990535;28;20053;-63
2021/10/22 03:00:46;;;;;;;9.15;3.35;;;;;;;8.16;95.42;97873.13;4986600;28;20089;-63
2021/10/22 03:03:12;;;;;;;9.93;2.83;;;;;;;8.52;94.06;97878.00;4988685;28;20030;-64
2021/10/22 03:05:37;;;;;;;7.22;3.00;;;;;;;8.44;93.11;97872.22;4990258;28;20044;-65
2021/10/22 03:08:03;;;;;;;6.13;3.05;;;;;;;8.22;95.09;97867.72;4988129;28;20538;-65
2021/10/22 03:10:28;;;;;;;6.25;3.45;;;;;;;7.87;95.48;97872.31;4989244;28;20557;-65
2021/10/22 03:12:53;;;;;;;11.77;3.40;;;;;;;7.95;92.00;97869.47;4990776;28;20178;-65
2021/10/22 03:15:19;;;;;;;7.15;2.92;;;;;;;8.15;93.65;97876.63;4990134;28;20022;-63
2021/10/22 03:17:45;;;;;;;6.75;3.28;;;;;;;7.88;95.12;97868.84;4989491;28;20392;-63
2021/10/22 03:20:11;;;;;;;8.13;3.20;;;;;;;7.78;94.46;97885.59;4988483;28;20051;-65
2021/10/22 03:22:38;;;;;;;8.23;2.92;;;;;;;7.88;92.90;97884.44;4989732;28;20053;-63
2021/10/22 03:25:05;;;;;;;13.20;3.22;;;;;;;7.72;95.93;97893.59;4987515;28;20026;-63
2021/10/22 03:27:32;;;;;;;8.35;3.00;;;;;;;8.03;95.61;97887.41;4988283;28;20491;-63
2021/10/22 03:29:57;;;;;;;9.00;3.13;;;;;;;8.01;93.70;97886.59;4990323;28;20699;-63
2021/10/22 03:32:23;;;;;;;8.32;2.78;;;;;;;7.60;94.91;97891.38;4990079;28;20500;-64
2021/10/22 03:34:48;;;;;;;7.25;3.47;;;;;;;7.63;96.81;97893.88;4989653;28;20060;-63
2021/10/22 03:37:14;;;;;;;11.45;3.40;;;;;;;7.75;95.38;97890.03;4988275;28;20043;-64
2021/10/22 03:39:40;;;;;;;8.63;3.05;;;;;;;7.63;97.36;97901.66;4987627;28;20030;-65
2021/10/22 03:42:06;;;;;;;10.60;3.38;;;;;;;7.37;98.69;97889.47;4987230;28;20690;-65
2021/10/22 03:44:31;;;;;;;12.32;3.58;;;;;;;7.25;99.46;97898.47;4988974;28;20026;-62
2021/10/22 03:46:57;;;;;;;9.30;3.53;;;;;;;7.29;99.45;97895.72;4989815;28;20205;-65
2021/10/22 03:49:23;;;;;;;10.50;3.72;;;;;;;7.22;98.25;97899.38;4989318;28;20072;-63
2021/10/22 03:51:48;;;;;;;6.00;2.33;;;;;;;8.04;98.45;97896.91;4988536;28;20100;-64
2021/10/22 03:54:14;;;;;;;7.50;3.03;;;;;;;7.25;99.66;97893.28;4987690;28;20040;-65
2021/10/22 03:56:39;;;;;;;9.98;3.15;;;;;;;7.28;99.44;97893.19;4990720;28;20205;-63
2021/10/22 03:59:05;;;;;;;8.05;3.00;;;;;;;7.36;98.34;97901.59;4988794;28;20032;-66
2021/10/22 04:01:30;;;;;;;11.32;3.47;;;;;;;7.83;95.58;97896.69;4985840;28;20137;-66
2021/10/22 04:03:55;;;;;;;10.18;3.38;;;;;;;7.32;99.81;97903.44;4986820;28;20026;-65
2021/10/22 04:06:21;;;;;;;9.65;3.22;;;;;;;7.61;97.73;97906.03;4978437;28;20034;-66
2021/10/22 04:08:46;;;;;;;11.55;3.80;;;;;;;7.36;100.00;97906.78;4971404;28;20040;-66
2021/10/22 04:11:12;;;;;;;10.00;3.28;;;;;;;7.50;94.79;97912.41;4988612;28;20088;-66
2021/10/22 04:13:37;;;;;;;9.55;3.33;;;;;;;7.30;96.18;97917.34;4986049;28;20041;-65
2021/10/22 04:16:02;;;;;;;9.30;3.30;;;;;;;7.32;99.00;97920.75;4985814;28;20508;-64
2021/10/22 04:18:28;;;;;;;11.52;3.22;;;;;;;7.16;99.67;97915.13;4984595;28;20022;-66
2021/10/22 04:20:54;;;;;;;5.15;2.15;;;;;;;7.98;97.85;97920.50;4986732;28;20048;-65
2021/10/22 04:23:19;;;;;;;11.52;4.22;;;;;;;7.36;95.61;97909.38;4986449;28;20038;-64
2021/10/22 04:25:45;;;;;;;9.52;3.22;;;;;;;7.61;98.78;97916.41;4984664;28;20060;-64
2021/10/22 04:28:11;;;;;;;13.05;3.63;;;;;;;7.22;97.94;97925.34;4985385;28;20065;-62
2021/10/22 04:30:37;;;;;;;12.73;3.55;;;;;;;7.41;98.76;97920.47;4986863;28;20042;-63
2021/10/22 04:33:03;;;;;;;12.30;4.43;;;;;;;7.58;99.09;97921.72;4988383;28;20099;-64
2021/10/22 04:35:30;;;;;;;15.25;3.83;;;;;;;7.75;95.57;97927.22;4985640;28;20046;-62
2021/10/22 04:40:35;;;;;;;10.18;3.78;;;;;;;7.87;98.13;97928.63;4989499;28;20033;-64
2021/10/22 04:43:06;;;;;;;17.00;4.20;;;;;;;7.86;94.07;97926.91;4990708;28;20031;-64
2021/10/22 04:45:34;;;;;;;12.32;3.78;;;;;;;7.38;100.00;97930.94;4987637;28;20049;-64
2021/10/22 04:48:01;;;;;;;9.93;3.78;;;;;;;7.71;97.23;97930.81;4990405;28;20030;-63
2021/10/22 04:50:27;;;;;;;9.02;3.90;;;;;;;7.73;100.00;97931.63;4988466;28;20050;-62
2021/10/22 04:52:53;;;;;;;11.65;3.40;;;;;;;7.54;97.24;97931.34;4989309;28;20894;-65
2021/10/22 04:55:23;;;;;;;8.05;3.35;;;;;;;7.59;98.11;97924.28;4990988;28;20052;-63
2021/10/22 04:57:52;;;;;;;10.38;3.72;;;;;;;7.49;97.60;97931.47;4990037;28;20036;-66
2021/10/22 05:00:19;;;;;;;12.60;4.13;;;;;;;8.04;94.76;97931.53;4992229;28;20092;-64
2021/10/22 05:02:45;;;;;;;11.25;3.50;;;;;;;7.70;96.46;97935.19;4990705;28;20032;-63
2021/10/22 05:05:11;;;;;;;9.10;3.20;;;;;;;7.42;97.53;97942.06;4994549;28;20898;-65
2021/10/22 05:07:36;;;;;;;11.82;3.70;;;;;;;7.67;98.89;97937.84;4992728;28;20032;-65
2021/10/22 05:10:04;;;;;;;11.60;4.13;;;;;;;7.98;98.02;97929.13;4994990;28;20029;-64
2021/10/22 05:12:29;;;;;;;16.23;3.97;;;;;;;7.88;96.73;97927.69;4993576;28;20201;-66
2021/10/22 05:14:54;;;;;;;12.70;4.13;;;;;;;7.96;97.58;97927.47;4994449;28;20136;-66
2021/10/22 05:17:20;;;;;;;11.38;4.05;;;;;;;7.59;99.78;97926.88;4991609;28;20890;-65
2021/10/22 05:19:45;;;;;;;13.93;4.30;;;;;;;7.52;98.43;97923.59;4996036;28;20475;-63
2021/10/22 05:22:10;;;;;;;13.23;3.97;;;;;;;7.20;97.64;97928.88;4990136;28;20587;-65
2021/10/22 05:24:36;;;;;;;12.40;4.28;;;;;;;7.35;98.98;97925.81;4993556;28;20148;-66
2021/10/22 05:27:01;;;;;;;17.95;4.50;;;;;;;7.21;100.00;97938.38;4994086;28;20702;-65
2021/10/22 05:29:27;;;;;;;14.98;4.40;;;;;;;7.43;98.57;97934.25;4994146;28;20125;-66
2021/10/22 05:31:52;;;;;;;16.83;4.55;;;;;;;7.49;97.22;97934.06;4995562;28;20046;-66
2021/10/22 05:34:20;;;;;;;12.82;4.47;;;;;;;7.73;96.79;97924.69;4994599;28;20037;-65
2021/10/22 05:36:56;;;;;;;14.15;4.57;;;;;;;7.55;98.42;97930.44;4994130;28;20496;-66
2021/10/22 05:39:21;;;;;;;19.10;4.55;;;;;;;7.51;100.00;97932.25;4993947;28;20041;-66
2021/10/22 05:41:48;;;;;;;17.88;5.43;;;;;;;7.56;99.58;97932.16;4991809;28;20046;-66
2021/10/22 05:44:18;;;;;;;18.00;5.45;;;;;;;7.57;99.38;97931.22;5002349;28;20025;-64
2021/10/22 05:46:48;;;;;;;21.75;5.70;;;;;;;7.24;97.62;97933.06;4993757;28;20747;-63
2021/10/22 05:49:14;;;;;;;21.45;5.68;;;;;;;7.39;96.35;97931.78;4992947;28;20109;-66
2021/10/22 05:51:45;;;;;;;15.32;5.00;;;;;;;7.27;95.56;97930.41;4994679;28;20069;-66
2021/10/22 05:54:10;;;;;;;20.33;5.05;;;;;;;6.96;96.02;97939.03;4996150;28;20034;-66
2021/10/22 05:56:36;;;;;;;22.17;5.50;;;;;;;6.75;100.00;97936.13;4993187;28;20108;-65
2021/10/22 05:59:01;;;;;;;15.10;5.25;;;;;;;7.02;97.78;97936.28;4992832;28;20026;-65
2021/10/22 06:01:26;;;;;;;19.58;5.70;;;;;;;6.96;97.81;97939.03;4993743;28;20030;-64
2021/10/22 06:03:52;;;;;;;19.27;5.72;;;;;;;6.60;98.75;97943.44;4992257;28;20052;-66
2021/10/22 06:06:17;;;;;;;18.65;5.72;;;;;;;6.78;97.00;97935.19;4993197;28;20030;-66
2021/10/22 06:08:43;;;;;;;15.00;5.20;;;;;;;6.68;99.11;97950.16;4992617;28;20041;-65
2021/10/22 06:11:11;;;;;;;15.38;5.38;;;;;;;6.84;96.66;97942.81;4993135;28;20038;-66
2021/10/22 06:13:41;;;;;;;12.82;5.55;;;;;;;6.77;99.64;97948.22;4992943;28;20742;-64
2021/10/22 06:16:08;;;;;;;19.02;5.28;;;;;;;6.70;96.77;97953.53;4993791;28;20042;-65
2021/10/22 06:18:35;;;;;;;18.92;5.55;;;;;;;6.77;99.29;97953.41;4993960;28;20026;-66
2021/10/22 06:21:04;;;;;;;14.70;5.00;;;;;;;6.51;100.00;97957.53;4993885;28;20530;-66
2021/10/22 06:26:15;;;;;;;15.43;4.97;;;;;;;6.98;96.72;97963.19;4993633;28;20141;-63
2021/10/22 06:28:41;;;;;;;19.42;6.00;;;;;;;6.92;98.33;97966.78;4993241;28;20077;-64
2021/10/22 06:31:06;;;;;;;15.32;5.47;;;;;;;7.06;97.15;97970.78;4992454;28;20720;-64
2021/10/22 06:33:32;;;;;;;12.82;5.00;;;;;;;7.23;100.00;97983.28;4991318;28;20034;-65
2021/10/22 06:35:57;;;;;;;20.60;5.50;;;;;;;7.00;95.27;97992.50;4991122;28;20126;-65
2021/10/22 06:38:24;;;;;;;20.67;5.32;;;;;;;7.17;97.96;97999.00;4991290;28;20026;-64
2021/10/22 06:40:53;;;;;;;20.35;5.35;;;;;;;7.27;94.70;98006.47;4991339;28;20070;-62
2021/10/22 06:43:20;;;;;;;16.13;5.15;;;;;;;6.84;96.71;98014.56;4992213;28;20026;-64
2021/10/22 06:45:49;;;;;;;14.23;5.05;;;;;;;7.22;97.21;98016.13;4993698;28;20073;-63
2021/10/22 06:48:15;;;;;;;11.65;5.10;;;;;;;7.29;92.14;98022.00;4991113;28;20057;-63
2021/10/22 06:50:41;;;;;;;16.70;5.00;;;;;;;7.40;93.83;98022.56;4992045;28;20030;-62
2021/10/22 06:53:07;;;;;;;11.70;4.53;;;;;;;7.50;92.83;98037.00;4992708;28;20101;-63
2021/10/22 06:55:33;;;;;;;15.93;5.30;;;;;;;7.77;96.34;98037.09;4992545;28;20413;-63
2021/10/22 06:57:58;;;;;;;16.63;5.43;;;;;;;7.75;96.06;98046.66;4993483;28;21004;-63
2021/10/22 07:00:26;;;;;;;14.20;5.07;;;;;;;7.52;98.68;98037.81;4993231;28;20030;-65
2021/10/22 07:02:53;;;;;;;19.52;5.32;;;;;;;7.88;92.50;98045.44;4991164;28;20061;-65
2021/10/22 07:05:48;;;;;;;21.00;5.47;;;;;;;7.78;95.88;98041.41;4989261;28;20033;-65
2021/10/22 07:08:13;;;;;;;24.80;5.88;;;;;;;9.57;95.59;98033.84;4991484;28;20658;-65
2021/10/22 07:10:39;;;;;;;14.48;5.20;;;;;;;9.89;83.80;98038.78;4991229;28;20044;-63
2021/10/22 07:13:05;;;;;;;11.95;4.82;;;;;;;10.27;83.83;98033.84;4994206;28;20392;-63
2021/10/22 07:15:31;;;;;;;11.63;4.57;;;;;;;10.84;78.10;98044.66;4992601;28;20034;-65
2021/10/22 07:18:00;;;;;;;13.55;4.63;;;;;;;11.63;74.28;98044.75;4992496;28;20109;-63
2021/10/22 07:20:30;;;;;;;9.73;4.03;;;;;;;12.41;72.00;98040.34;4990189;28;20141;-65
2021/10/22 07:23:09;;;;;;;10.43;4.07;;;;;;;12.70;69.48;98044.13;4991367;28;20089;-65
2021/10/22 07:25:38;;;;;;;14.52;4.60;;;;;;;12.60;69.02;98053.38;4989332;28;20038;-64
2021/10/22 07:28:16;;;;;;;10.18;4.10;;;;;;;13.65;67.26;98049.81;4991477;28;20029;-65
2021/10/22 07:30:44;;;;;;;12.43;4.07;;;;;;;14.02;66.39;98055.75;4990025;28;20542;-64
2021/10/22 07:33:09;;;;;;;10.20;4.22;;;;;;;15.41;59.53;98061.88;4993499;28;20030;-63
2021/10/22 07:35:40;;;;;;;11.43;4.47;;;;;;;13.87;62.27;98064.41;4991886;28;20039;-65
2021/10/22 07:38:10;;;;;;;10.57;3.83;;;;;;;14.74;60.48;98066.69;4992780;28;20049;-65
2021/10/22 07:40:44;;;;;;;11.85;4.00;;;;;;;15.14;58.72;98064.34;4992034;28;20088;-64
2021/10/22 07:43:19;;;;;;;11.30;4.40;;;;;;;15.38;56.94;98084.88;5007536;28;20022;-65
2021/10/22 07:45:45;;;;;;;11.57;3.90;;;;;;;13.74;62.13;98084.34;4993086;28;20129;-65
2021/10/22 07:48:11;;;;;;;13.93;4.57;;;;;;;13.12;63.05;98082.22;4992697;28;20038;-64
2021/10/22 07:50:37;;;;;;;13.32;4.07;;;;;;;13.24;61.42;98091.25;4988962;28;20044;-63
2021/10/22 07:53:05;;;;;;;7.85;3.95;;;;;;;12.42;69.99;98094.34;4992029;28;20025;-65
2021/10/22 07:55:33;;;;;;;10.07;3.88;;;;;;;11.65;67.93;98085.59;4991492;28;20046;-65
2021/10/22 07:57:58;;;;;;;14.32;4.35;;;;;;;11.65;69.54;98100.41;4991490;28;20034;-65
2021/10/22 08:00:24;;;;;;;9.05;4.32;;;;;;;11.63;70.26;98102.22;4990388;28;20415;-65
2021/10/22 08:02:52;;;;;;;17.55;4.60;;;;;;;10.60;70.89;98097.78;4989178;28;20041;-63
2021/10/22 08:05:18;;;;;;;11.73;3.95;;;;;;;10.35;79.47;98091.81;4990663;28;20137;-64
2021/10/22 08:07:44;;;;;;;16.38;4.55;;;;;;;10.47;73.16;98095.69;4992840;28;20026;-64
2021/10/22 08:10:10;;;;;;;14.05;4.68;;;;;;;10.28;73.59;98098.97;4991797;28;20026;-62
2021/10/22 08:12:36;;;;;;;12.20;4.53;;;;;;;10.58;73.40;98096.94;4992300;28;20030;-64
2021/10/22 08:15:05;;;;;;;8.75;3.92;;;;;;;10.74;72.54;98097.19;4992198;28;20664;-63
2021/10/22 08:17:31;;;;;;;13.50;4.30;;;;;;;11.03;76.18;98096.91;4991199;28;20046;-65
2021/10/22 08:20:09;;;;;;;11.98;4.07;;;;;;;10.78;72.66;98098.78;4991697;28;20030;-63
2021/10/22 08:22:35;;;;;;;16.25;4.97;;;;;;;10.39;73.77;98096.84;4991401;28;20045;-65
2021/10/22 08:25:07;;;;;;;10.05;4.22;;;;;;;11.16;73.30;98087.69;4992477;28;20029;-64
2021/10/22 08:27:42;;;;;;;14.27;4.53;;;;;;;10.70;75.28;98092.19;4990697;28;20035;-65
2021/10/22 08:30:14;;;;;;;13.32;4.55;;;;;;;11.18;71.21;98097.16;4990079;28;20037;-63
2021/10/22 08:32:40;;;;;;;12.35;4.30;;;;;;;10.75;72.75;98092.81;4991100;28;20796;-65
2021/10/22 08:35:07;;;;;;;11.90;4.28;;;;;;;11.42;74.54;98093.56;4989770;28;20058;-64
2021/10/22 08:37:35;;;;;;;13.43;4.07;;;;;;;10.90;72.87;98096.56;4989823;28;20030;-65
2021/10/22 08:40:00;;;;;;;12.30;4.50;;;;;;;11.54;69.18;98098.25;4990683;28;20038;-63
2021/10/22 08:42:28;;;;;;;16.67;4.55;;;;;;;11.33;69.71;98094.81;4990599;28;20081;-64
2021/10/22 08:44:57;;;;;;;11.38;4.32;;;;;;;11.15;70.43;98104.25;4990308;28;20518;-64
2021/10/22 08:47:33;;;;;;;11.77;4.07;;;;;;;11.63;73.28;98110.91;4988518;28;20030;-66
2021/10/22 08:50:00;;;;;;;11.23;3.70;;;;;;;11.53;70.97;98113.06;4989790;28;20037;-64
2021/10/22 08:52:27;;;;;;;10.75;4.00;;;;;;;10.71;70.06;98114.75;4991606;28;20042;-65
2021/10/22 08:54:53;;;;;;;15.75;4.10;;;;;;;10.65;71.35;98117.59;4990545;28;20121;-66
2021/10/22 08:57:18;;;;;;;16.33;3.92;;;;;;;10.39;71.48;98116.84;4988574;28;20128;-64
2021/10/22 08:59:44;;;;;;;15.32;3.78;;;;;;;10.85;72.45;98115.03;4989319;28;20574;-63
2021/10/22 09:02:16;;;;;;;11.57;3.58;;;;;;;11.25;72.56;98108.19;4989251;28;20042;-64
2021/10/22 09:04:43;;;;;;;13.95;3.40;;;;;;;11.11;71.60;98110.53;4991037;28;20112;-64
2021/10/22 09:07:19;;;;;;;12.82;3.17;;;;;;;11.91;65.16;98102.75;4989065;28;20041;-65
2021/10/22 09:10:04;;;;;;;14.48;3.28;;;;;;;12.39;62.37;98112.78;4992857;28;20027;-62
2021/10/22 09:13:03;;;;;;;9.85;2.85;;;;;;;12.71;65.30;98092.97;4988821;28;20064;-64
2021/10/22 09:15:39;;;;;;;12.98;3.42;;;;;;;11.63;67.85;98103.06;4989384;28;20599;-65
2021/10/22 09:18:15;;;;;;;8.73;2.67;;;;;;;12.33;73.63;98095.63;4989755;28;20396;-63
2021/10/22 09:20:55;;;;;;;8.48;2.78;;;;;;;13.28;67.92;98096.25;4988125;28;20168;-65
2021/10/22 09:23:28;;;;;;;9.00;3.15;;;;;;;12.13;62.56;98101.75;4989955;28;20023;-63
2021/10/22 09:26:15;;;;;;;9.05;2.78;;;;;;;12.33;67.21;98100.84;4990695;28;20086;-66
2021/10/22 09:28:41;;;;;;;13.98;3.55;;;;;;;11.87;66.35;98100.28;4994340;28;20026;-63
2021/10/22 09:31:14;;;;;;;10.07;2.92;;;;;;;12.34;66.06;98092.09;4993327;28;20499;-65
2021/10/22 09:33:52;;;;;;;;;;;;;;;12.22;68.24;98097.88;4994506;28;20030;-64
2021/10/22 09:36:36;;;;;;;7.88;2.70;;;;;;;11.54;64.96;98093.03;4992004;28;20181;-65
2021/10/22 09:39:15;;;;;;;9.48;2.70;;;;;;;12.23;62.49;98089.13;4993540;28;20034;-63
2021/10/22 09:41:54;;;;;;;8.57;2.80;;;;;;;12.33;69.31;98090.38;4991768;28;20125;-65
2021/10/22 09:44:25;;;;;;;9.88;2.85;;;;;;;12.38;62.78;98093.63;4993225;28;20072;-64
2021/10/22 09:46:52;;;;;;;13.93;2.88;;;;;;;13.30;59.42;98076.06;4992884;28;20491;-65
2021/10/22 09:49:27;;;;;;;8.30;2.47;;;;;;;13.04;59.70;98079.16;4993063;28;20036;-63
2021/10/22 09:51:55;;;;;;;7.15;2.42;;;;;;;14.05;59.65;98089.66;4990891;28;20562;-63
2021/10/22 09:54:26;;;;;;;8.40;2.30;;;;;;;13.05;65.71;98080.81;4993161;28;20492;-62
2021/10/22 09:56:53;;;;;;;9.03;2.50;;;;;;;13.77;57.68;98073.72;4992367;28;20644;-63
2021/10/22 09:59:24;;;;;;;10.15;2.30;;;;;;;13.47;64.63;98082.22;4991458;28;20268;-64
2021/10/22 10:01:51;;;;;;;11.57;2.75;;;;;;;13.59;56.04;98080.75;4990775;28;20038;-64
2021/10/22 10:04:17;;;;;;;10.63;2.50;;;;;;;13.02;56.49;98083.63;4992772;28;20798;-62
2021/10/22 10:06:46;;;;;;;12.68;2.30;;;;;;;14.21;54.50;98083.59;4991733;28;20121;-63
2021/10/22 10:09:12;;;;;;;6.30;2.13;;;;;;;14.33;64.76;98082.06;4992825;28;20567;-65
2021/10/22 10:11:40;;;;;;;11.82;2.45;;;;;;;13.69;60.82;98088.06;4992225;28;20558;-65
2021/10/22 10:14:06;;;;;;;8.02;2.25;;;;;;;13.60;59.51;98080.69;4991833;28;20018;-65
2021/10/22 10:16:34;;;;;;;7.45;2.10;;;;;;;13.38;55.87;98083.56;4992362;28;20093;-64
2021/10/22 10:19:21;;;;;;;8.77;2.05;;;;;;;12.97;53.87;98085.59;4992534;28;20037;-63
2021/10/22 10:21:55;;;;;;;10.73;2.17;;;;;;;13.81;57.01;98097.06;4989889;28;20038;-63
2021/10/22 10:24:54;;;;;;;7.93;2.05;;;;;;;15.12;52.97;98095.13;4993947;28;20018;-65
2021/10/22 10:27:25;;;;;;;6.75;2.45;;;;;;;14.55;53.65;98102.72;4991643;28;20068;-66
2021/10/22 10:30:00;;;;;;;8.98;2.15;;;;;;;14.70;55.91;98096.66;4992541;28;20053;-66
2021/10/22 10:32:39;;;;;;;8.65;2.05;;;;;;;13.95;52.33;98090.22;4992517;28;20037;-65
2021/10/22 10:35:12;;;;;;;7.35;2.00;;;;;;;14.96;52.60;98089.06;4992552;28;20042;-65
2021/10/22 10:37:55;;;;;;;9.68;2.42;;;;;;;14.97;57.45;98088.16;4993233;28;20022;-66
2021/10/22 10:40:27;;;;;;;6.95;1.90;;;;;;;14.48;52.23;98098.75;4991302;28;20699;-64
2021/10/22 10:42:55;;;;;;;9.35;2.30;;;;;;;14.51;55.10;98090.72;4992735;28;20026;-66
2021/10/22 10:45:21;;;;;;;9.73;2.20;;;;;;;14.50;60.91;98089.00;4992800;28;20034;-65
2021/10/22 10:47:57;;;;;;;6.00;1.73;;;;;;;15.10;51.56;98090.91;4990826;28;20033;-64
2021/10/22 10:50:25;;;;;;;8.43;2.10;;;;;;;14.39;53.95;98093.09;4993699;28;20022;-63
2021/10/22 10:52:57;;;;;;;8.00;1.80;;;;;;;14.30;53.19;98090.97;4991404;28;20420;-65
2021/10/22 10:55:40;;;;;;;8.82;1.77;;;;;;;13.39;51.97;98087.03;4994972;28;20066;-63
2021/10/22 10:58:08;;;;;;;7.80;1.85;;;;;;;13.17;52.77;98090.69;4991776;28;20030;-64
2021/10/22 11:00:39;;;;;;;7.80;2.00;;;;;;;13.77;54.53;98095.53;4990045;28;20683;-64
2021/10/22 11:03:05;;;;;;;6.65;1.88;;;;;;;13.92;49.57;98080.75;4991109;28;20034;-63
2021/10/22 11:05:42;;;;;;;6.75;1.80;;;;;;;15.23;58.60;98082.22;4992506;28;20106;-63
2021/10/22 11:08:21;;;;;;;7.03;1.70;;;;;;;15.35;50.80;98090.34;4993568;28;20116;-63
2021/10/22 11:11:44;;;;;;;7.40;1.67;;;;;;;14.38;48.83;98075.63;4991031;28;20074;-66
2021/10/22 11:14:06;;;;;;;6.45;1.67;;;;;;;14.64;48.73;98076.00;4988270;28;20041;-65
2021/10/22 11:16:48;;;;;;;9.13;2.10;;;;;;;14.88;50.34;98080.78;4989525;28;20049;-64
2021/10/22 11:19:18;;;;;;;7.57;1.88;;;;;;;14.75;52.48;98088.53;4991900;28;20122;-65
2021/10/22 11:21:49;;;;;;;5.40;1.92;;;;;;;13.68;53.92;98081.13;4988885;28;20041;-65
2021/10/22 11:24:41;;;;;;;5.35;1.45;;;;;;;13.91;49.98;98071.19;4990976;28;20030;-63
2021/10/22 11:27:07;;;;;;;9.43;1.58;;;;;;;13.97;47.22;98070.88;4987865;28;20038;-65
2021/10/22 11:29:35;;;;;;;8.20;1.77;;;;;;;13.23;48.14;98079.06;4988679;28;20029;-64
2021/10/22 11:32:10;;;;;;;7.00;1.70;;;;;;;12.77;50.27;98076.94;4992966;28;20124;-65
2021/10/22 11:34:39;;;;;;;8.10;1.63;;;;;;;12.97;48.52;98067.28;4990830;28;20056;-65
2021/10/22 11:37:15;;;;;;;7.00;1.77;;;;;;;13.32;56.30;98069.94;4991795;28;20049;-63
2021/10/22 11:39:51;;;;;;;4.03;1.65;;;;;;;13.55;54.67;98072.22;4992823;28;20699;-63
2021/10/22 11:42:28;;;;;;;8.27;1.73;;;;;;;13.15;53.91;98065.53;4990866;28;20052;-64
2021/10/22 11:45:06;;;;;;;6.63;2.00;;;;;;;12.80;51.21;98065.50;4991485;28;20029;-64